VREMENSKI PODATKI

VČERAJ
Time Temp. Dewp. Hum. Bar. 1h Prec. 24h Prec.
00:01 16.5 13.4 82 1016.6 0.0000 0.0000
00:11 16.5 13.4 82 1016.6 0.0000 0.0000
00:21 16.4 13.3 82 1016.6 0.0000 0.0000
00:31 16.4 13.3 82 1016.8 0.0000 0.0000
00:41 16.3 13.2 82 1016.6 0.0000 0.0000
00:51 16.3 13.2 82 1016.6 0.0000 0.0000
01:01 16.3 13.2 82 1016.8 0.0000 0.0000
01:11 16.3 13.2 82 1016.8 0.0000 0.0000
01:20 16.2 13.1 82 1016.8 0.0000 0.0000
01:31 16.1 13 82 1016.8 0.0000 0.0000
01:41 16.1 13 82 1016.8 0.0000 0.0000
01:52 16 12.9 82 1016.9 0.0000 0.0000
02:02 15.9 12.8 82 1016.9 0.0000 0.0000
02:11 15.8 12.7 82 1016.9 0.0000 0.0000
02:22 15.8 12.7 82 1016.8 0.0000 0.0000
02:32 15.7 12.6 82 1016.6 0.0000 0.0000
02:42 15.7 12.6 82 1016.5 0.0000 0.0000
02:52 15.6 12.5 82 1016.4 0.0000 0.0000
03:02 15.5 12.6 83 1016.4 0.0000 0.0000
03:12 15.4 12.5 83 1016.3 0.0000 0.0000
03:22 15.3 12.4 83 1016.3 0.0000 0.0000
03:32 15.1 12.2 83 1016.1 0.0000 0.0000
03:42 14.8 12.1 84 1016 0.0000 0.0000
03:52 14.6 11.9 84 1016 0.0000 0.0000
04:02 14.4 11.7 84 1016 0.0000 0.0000
04:13 14.2 11.5 84 1016 0.0000 0.0000
04:23 14.2 11.7 85 1015.9 0.0000 0.0000
04:32 14 11.5 85 1015.9 0.0000 0.0000
04:43 13.9 11.4 85 1015.8 0.0000 0.0000
04:53 13.8 11.3 85 1015.8 0.0000 0.0000
05:03 13.8 11.3 85 1015.7 0.0000 0.0000
05:13 13.8 11.3 85 1015.7 0.0000 0.0000
05:23 13.8 11.5 86 1015.6 0.0000 0.0000
05:33 13.9 11.6 86 1015.5 0.0000 0.0000
05:43 14 11.7 86 1015.4 0.0000 0.0000
05:53 13.9 11.6 86 1015.4 0.0000 0.0000
06:04 13.8 11.5 86 1015.4 0.0000 0.0000
06:13 13.8 11.5 86 1015.4 0.0000 0.0000
06:23 13.8 11.5 86 1015.5 0.0000 0.0000
06:34 13.8 11.5 86 1015.5 0.0000 0.0000
06:44 13.8 11.5 86 1015.5 0.0000 0.0000
06:54 13.7 11.4 86 1015.5 0.0000 0.0000
07:03 13.7 11.4 86 1015.5 0.0000 0.0000
07:14 13.7 11.4 86 1015.5 0.0000 0.0000
07:24 13.6 11.3 86 1015.5 0.0000 0.0000
07:34 13.5 11.2 86 1015.4 0.0000 0.0000
07:44 13.4 11.1 86 1015.4 0.0000 0.0000
07:54 13.4 11.3 87 1015.3 0.0000 0.0000
08:04 13.5 11.4 87 1015.4 0.0000 0.0000
08:14 13.6 11.5 87 1015.3 0.0000 0.0000
08:25 13.7 11.6 87 1015.3 0.0000 0.0000
08:34 13.9 11.8 87 1015.5 0.0000 0.0000
08:44 14.3 12.2 87 1015.5 0.0000 0.0000
08:55 14.8 12.7 87 1015.4 0.0000 0.0000
09:05 15.3 13.2 87 1015.3 0.0000 0.0000
09:15 15.6 13.3 86 1015.3 0.0000 0.0000
09:24 15.7 13.4 86 1015.3 0.0000 0.0000
09:35 15.9 13.4 85 1015.3 0.0000 0.0000
09:45 16.2 13.7 85 1015.4 0.0000 0.0000
09:55 16.5 13.8 84 1015.3 0.0000 0.0000
10:06 16.7 13.8 83 1015.3 0.0000 0.0000
10:15 16.9 14 83 1015.3 0.0000 0.0000
10:25 17.3 14.2 82 1015.3 0.0000 0.0000
10:35 17.5 14.2 81 1015.3 0.0000 0.0000
10:46 17.9 14.6 81 1015.4 0.0000 0.0000
10:55 18.1 14.6 80 1015.4 0.0000 0.0000
11:05 18.4 14.7 79 1015.3 0.0000 0.0000
11:16 18.6 14.7 78 1015.2 0.0000 0.0000
11:26 18.8 14.7 77 1015.1 0.0000 0.0000
11:36 19 14.9 77 1015.1 0.0000 0.0000
11:45 19.2 14.9 76 1015.1 0.0000 0.0000
11:56 19.3 14.8 75 1015 0.0000 0.0000
12:06 19.5 14.7 74 1014.9 0.0000 0.0000
12:16 19.7 14.7 73 1014.8 0.0000 0.0000
12:26 19.9 14.7 72 1014.7 0.0000 0.0000
12:36 20 14.6 71 1014.7 0.0000 0.0000
12:46 20 14.4 70 1014.6 0.0000 0.0000
12:56 20.3 14.9 71 1014.6 0.0000 0.0000
13:07 20.3 14.7 70 1014.5 0.0000 0.0000
13:17 20.4 14.5 69 1014.3 0.0000 0.0000
13:26 20.5 14.4 68 1014.3 0.0000 0.0000
13:37 20.6 14.5 68 1014.3 0.0000 0.0000
13:47 20.9 14.8 68 1014.2 0.0000 0.0000
13:57 21.2 15.1 68 1014.1 0.0000 0.0000
14:07 21.2 14.6 66 1014 0.0000 0.0000
14:17 20.7 14.1 66 1014 0.0000 0.0000
14:27 21 14.6 67 1013.9 0.0000 0.0000
14:37 21.1 14.7 67 1013.8 0.0000 0.0000
14:47 21.3 14.7 66 1013.8 0.0000 0.0000
14:57 21.2 14.8 67 1013.7 0.0000 0.0000
15:07 21.4 15 67 1013.6 0.0000 0.0000
15:17 21.3 14.7 66 1013.6 0.0000 0.0000
15:28 21 14.4 66 1013.5 0.0000 0.0000
15:38 21.2 14.8 67 1013.4 0.0000 0.0000
15:47 21.3 14.7 66 1013.3 0.0000 0.0000
15:58 21.2 14.6 66 1013.3 0.0000 0.0000
16:08 21.1 14.3 65 1013.3 0.0000 0.0000
16:18 21 14.4 66 1013.2 0.0000 0.0000
16:28 21 14.2 65 1013.2 0.0000 0.0000
16:38 21.1 14.5 66 1013.1 0.0000 0.0000
16:48 21 14.4 66 1013.1 0.0000 0.0000
16:58 20.8 14 65 1013.1 0.0000 0.0000
17:08 20.6 13.8 65 1013.1 0.0000 0.0000
17:19 20.5 13.7 65 1013.1 0.0000 0.0000
17:28 20.5 13.7 65 1013.1 0.0000 0.0000
17:38 20.4 13.6 65 1013.1 0.0000 0.0000
17:49 20.2 13.4 65 1013.1 0.0000 0.0000
17:59 20 13.2 65 1013.1 0.0000 0.0000
18:09 19.9 13.4 66 1013.1 0.0000 0.0000
18:19 19.8 13.3 66 1013 0.0000 0.0000
18:29 19.6 13.1 66 1013 0.0000 0.0000
18:39 19.4 13.1 67 1013 0.0000 0.0000
18:49 19.3 13 67 1013.1 0.0000 0.0000
18:59 19 13 68 1013.2 0.0000 0.0000
19:09 18.7 12.7 68 1013.2 0.0000 0.0000
19:19 18.3 12.5 69 1013.2 0.0000 0.0000
19:29 17.9 12.4 70 1013.2 0.0000 0.0000
19:40 17.5 12.2 71 1013.2 0.0000 0.0000
19:49 17.2 11.9 71 1013.2 0.0000 0.0000
19:59 16.9 11.8 72 1013.2 0.0000 0.0000
20:10 16.7 11.6 72 1013.3 0.0000 0.0000
20:20 16.6 11.7 73 1013.4 0.0000 0.0000
20:30 16.7 11.8 73 1013.6 0.0000 0.0000
20:40 16.9 12 73 1013.6 0.0000 0.0000
20:50 17 12.1 73 1013.7 0.0000 0.0000
21:00 17.1 12.2 73 1013.8 0.0000 0.0000
21:10 17 12.1 73 1013.9 0.0000 0.0000
21:21 16.9 12 73 1014 0.0000 0.0000
21:30 16.8 11.9 73 1014 0.0000 0.0000
21:40 16.5 11.6 73 1014 0.0000 0.0000
21:50 16.2 11.4 73 1014 0.0000 0.0000
22:01 15.9 11.3 74 1014 0.0000 0.0000
22:10 15.6 11 74 1014 0.0000 0.0000
22:20 15.2 10.8 75 1014.1 0.0000 0.0000
22:31 14.9 10.5 75 1014.1 0.0000 0.0000
22:41 14.7 10.5 76 1014 0.0000 0.0000
22:51 14.5 10.5 77 1014.1 0.0000 0.0000
23:01 14.2 10.2 77 1014.2 0.0000 0.0000
23:11 13.9 10.1 78 1014.2 0.0000 0.0000
23:21 13.7 9.9 78 1014.2 0.0000 0.0000
23:31 13.4 9.8 79 1014.2 0.0000 0.0000
23:42 13.3 9.7 79 1014.3 0.0000 0.0000
23:51 13.1 9.5 79 1014.3 0.0000 0.0000

DNEVNA STATISTIKA

2021-09-17
TEMPERATURA
POVPREČNO
17.0
VISOKO
21.4
15:07
NIZKO
13.1
23:51
PRITISK
POVPREČNO
1014.8
VISOKO
1016.9
01:52
NIZKO
1013.0
18:19
ROSIŠČE
POVPREČNO
12.8
VISOKO
15.1
13:57
NIZKO
9.5
23:51
VLAŽNOST
POVPREČNO
77
VISOKO
87
07:54
NIZKO
65
16:08
PADAVINE
PADAVINE URNO
0.0
PADAVINE DNEVNO
0.0
TEMPERATURA (°C)
NIZKO
13.1
VISOKO
21.4
POVPREČNO
17.0
PRITISK (hpa)
NIZKO
1013.0
VISOKO
1016.9
POVPREČNO
1014.8
DEVICE